CGN weather

Cologne Bonn Airport
Cologne, North Rhine-Westphalia, Germany

Public forecast

Using degrees Celsius for public forecast. Weather courtesy of forecast.io.

Current aviation weather report (METAR) for Cologne Bonn Airport

Retrieved 2019/10/19 20:20 UTC (35 minutes ago):

EDDK 192020Z 15005KT 9999 -RA NSC 12/12 Q1007 NOSIG

Aviation forecast (TAF) for Cologne Bonn Airport

Retrieved 2019/10/19 18:27 UTC (2 hours ago):

TAF EDDK 191700Z 1918/2024 18005KT 9999 BKN040 BECMG 1921/1924 VRB03KT PROB30 TEMPO 1921/2003 4500 -RADZ BECMG 2004/2007 4500 BR BKN008 TEMPO 2007/2017 2500 RA BKN004 BECMG 2017/2020 1200 RADZ BKN004